Terminal Aerodrome Forecast
Issued by NWS Paducah, KY

Home | Current Version | Previous Version | Text Only | Print | Product List | Glossary On
Versions: 1 2 3 4 5 6 7 8 9 10 11 12 13 14 15
000
FTUS43 KPAH 231100
TAFEVV
TAF
KEVV 231127Z 2312/2412 04005KT P6SM SCT050 OVC100
     FM231800 36004KT P6SM BKN040 OVC100
     FM240300 VRB02KT P6SM SCT250=

USA.gov is the U.S. government's official web portal to all federal, state and local government web resources and services.